createdAt,value
2018-07-02T00:00:20.306Z,53.30
2018-07-02T00:02:49.731Z,52.30
2018-07-02T00:05:19.217Z,51.10
2018-07-02T00:07:48.681Z,51.20
2018-07-02T00:10:17.969Z,50.10
2018-07-02T00:12:47.439Z,52.70
2018-07-02T00:15:16.677Z,51.30
2018-07-02T00:17:46.268Z,52.20
2018-07-02T00:20:15.673Z,51.30
2018-07-02T00:22:45.265Z,50.30
2018-07-02T00:25:14.575Z,49.30
2018-07-02T00:27:44.024Z,48.30
2018-07-02T00:30:13.368Z,49.90
2018-07-02T00:32:42.601Z,47.10
2018-07-02T00:35:11.846Z,49.90
2018-07-02T00:37:40.984Z,48.60
2018-07-02T00:40:10.240Z,53.60
2018-07-02T00:42:39.418Z,48.60
2018-07-02T00:45:08.672Z,53.80
2018-07-02T00:47:37.935Z,55.00
2018-07-02T00:50:07.496Z,55.70
2018-07-02T00:52:36.670Z,52.50
2018-07-02T00:55:06.364Z,49.60
2018-07-02T00:57:35.663Z,56.50
2018-07-02T01:00:15.619Z,56.10
2018-07-02T01:02:45.129Z,53.10
2018-07-02T01:05:14.684Z,52.70
2018-07-02T01:07:45.082Z,50.70
2018-07-02T01:10:14.572Z,51.50
2018-07-02T01:12:43.982Z,51.50
2018-07-02T01:15:13.397Z,52.80
2018-07-02T01:17:43.045Z,52.20
2018-07-02T01:20:12.485Z,51.60
2018-07-02T01:22:41.669Z,52.00
2018-07-02T01:25:10.772Z,51.30
2018-07-02T01:27:39.940Z,51.50
2018-07-02T01:30:09.395Z,51.50
2018-07-02T01:32:38.671Z,51.60
2018-07-02T01:35:07.911Z,51.80
2018-07-02T01:37:37.284Z,52.00
2018-07-02T01:40:06.591Z,52.00
2018-07-02T01:42:35.739Z,51.90
2018-07-02T01:45:05.280Z,52.10
2018-07-02T01:47:34.596Z,52.40
2018-07-02T01:50:04.099Z,52.60
2018-07-02T01:55:02.322Z,52.80
2018-07-02T02:00:00.201Z,53.10
2018-07-02T02:02:29.420Z,53.30
2018-07-02T02:04:58.748Z,53.40
2018-07-02T02:07:27.953Z,53.60
2018-07-02T02:09:57.128Z,53.70
2018-07-02T02:12:26.788Z,54.40
2018-07-02T02:14:55.960Z,54.00
2018-07-02T02:17:25.516Z,54.50
2018-07-02T02:19:54.680Z,54.30
2018-07-02T02:22:23.823Z,54.40
2018-07-02T02:24:52.897Z,54.40
2018-07-02T02:27:22.256Z,54.60
2018-07-02T02:29:51.421Z,54.50
2018-07-02T02:32:20.567Z,54.10
2018-07-02T02:34:49.853Z,54.60
2018-07-02T02:37:19.331Z,54.70
2018-07-02T02:39:48.636Z,54.70
2018-07-02T02:42:18.148Z,54.70
2018-07-02T02:44:47.557Z,54.70
2018-07-02T02:47:16.863Z,54.70
2018-07-02T02:49:46.303Z,56.20
2018-07-02T02:52:15.737Z,55.50
2018-07-02T02:54:45.421Z,56.20
2018-07-02T02:59:44.253Z,55.60
2018-07-02T03:02:13.696Z,57.70
2018-07-02T03:04:43.298Z,58.20
2018-07-02T03:07:12.589Z,58.00
2018-07-02T03:09:42.082Z,56.20
2018-07-02T03:12:11.387Z,57.10
2018-07-02T03:14:40.753Z,59.80
2018-07-02T03:17:10.144Z,59.30
2018-07-02T03:19:39.381Z,57.30
2018-07-02T03:22:08.794Z,56.80
2018-07-02T03:24:38.181Z,55.90
2018-07-02T03:27:07.356Z,55.10
2018-07-02T03:29:36.696Z,55.10
2018-07-02T03:32:05.978Z,54.60
2018-07-02T03:34:35.363Z,52.10
2018-07-02T03:37:04.696Z,58.80
2018-07-02T03:39:33.846Z,57.60
2018-07-02T03:42:03.140Z,57.70
2018-07-02T03:44:32.255Z,56.90
2018-07-02T03:47:01.480Z,56.70
2018-07-02T03:49:30.800Z,56.00
2018-07-02T03:51:59.988Z,56.20
2018-07-02T03:54:29.204Z,56.50
2018-07-02T03:56:58.277Z,62.00
2018-07-02T03:59:27.745Z,64.50
2018-07-02T04:04:25.564Z,61.30
2018-07-02T04:06:54.616Z,59.50
2018-07-02T04:09:23.860Z,60.10
2018-07-02T04:11:52.976Z,66.60
2018-07-02T04:14:22.182Z,62.10
2018-07-02T04:16:51.383Z,65.60
2018-07-02T04:21:49.488Z,68.50
2018-07-02T04:24:18.790Z,67.10
2018-07-02T04:26:48.369Z,67.40
2018-07-02T04:29:18.064Z,64.40
2018-07-02T04:31:47.376Z,63.20
2018-07-02T04:34:16.601Z,63.80
2018-07-02T04:36:46.501Z,65.00
2018-07-02T04:39:15.927Z,67.70
2018-07-02T04:41:45.327Z,61.30
2018-07-02T04:46:44.387Z,52.10
2018-07-02T04:49:14.172Z,51.50
2018-07-02T04:51:43.758Z,50.10
2018-07-02T04:54:13.170Z,48.70
2018-07-02T04:56:42.693Z,51.30
2018-07-02T04:59:12.264Z,47.40
2018-07-02T05:01:41.591Z,48.90
2018-07-02T05:04:11.435Z,48.40
2018-07-02T05:06:40.927Z,52.90
2018-07-02T05:09:10.152Z,49.30
2018-07-02T05:11:39.471Z,51.70
2018-07-02T05:14:08.707Z,57.80
2018-07-02T05:16:37.917Z,61.30
2018-07-02T05:19:07.353Z,53.90
2018-07-02T05:21:36.499Z,54.70
2018-07-02T05:24:05.757Z,55.70
2018-07-02T05:26:35.064Z,53.80
2018-07-02T05:29:04.527Z,54.40
2018-07-02T05:31:33.692Z,54.40
2018-07-02T05:34:03.868Z,56.10
2018-07-02T05:36:33.180Z,55.30
2018-07-02T05:39:02.506Z,52.90
2018-07-02T05:41:32.490Z,53.90
2018-07-02T05:44:01.742Z,55.60
2018-07-02T05:46:31.112Z,54.50
2018-07-02T05:49:00.460Z,54.30
2018-07-02T05:51:29.746Z,53.10
2018-07-02T05:53:58.998Z,56.00
2018-07-02T05:56:28.365Z,53.50
2018-07-02T05:58:57.717Z,51.40
2018-07-02T06:01:27.000Z,54.20
2018-07-02T06:03:56.143Z,52.10
2018-07-02T06:06:25.418Z,48.20
2018-07-02T06:08:55.071Z,48.80
2018-07-02T06:11:24.444Z,51.70
2018-07-02T06:13:53.687Z,50.70
2018-07-02T06:16:23.071Z,48.80
2018-07-02T06:18:52.524Z,47.10
2018-07-02T06:21:21.801Z,47.00
2018-07-02T06:23:51.284Z,46.60
2018-07-02T06:26:20.721Z,46.90
2018-07-02T06:28:50.189Z,48.60
2018-07-02T06:31:19.365Z,48.90
2018-07-02T06:33:48.619Z,45.20
2018-07-02T06:36:17.897Z,45.40
2018-07-02T06:38:47.259Z,43.60
2018-07-02T06:41:16.620Z,48.20
2018-07-02T06:43:46.340Z,44.20
2018-07-02T06:46:15.757Z,47.10
2018-07-02T06:48:45.110Z,46.80
2018-07-02T06:51:14.512Z,46.70
2018-07-02T06:53:43.762Z,46.30
2018-07-02T06:56:13.213Z,44.70
2018-07-02T06:58:42.678Z,45.70
2018-07-02T07:01:12.068Z,44.70
2018-07-02T07:03:41.572Z,42.40
2018-07-02T07:06:11.022Z,43.90
2018-07-02T07:08:40.685Z,43.90
2018-07-02T07:11:09.993Z,43.40
2018-07-02T07:13:38.914Z,41.50
2018-07-02T07:16:08.399Z,42.60
2018-07-02T07:18:37.603Z,41.30
2018-07-02T07:21:06.852Z,40.20
2018-07-02T07:23:36.019Z,42.70
2018-07-02T07:26:05.376Z,42.70
2018-07-02T07:28:34.656Z,40.40
2018-07-02T07:31:04.040Z,42.80
2018-07-02T07:33:33.173Z,41.20
2018-07-02T07:36:02.421Z,42.10
2018-07-02T07:38:31.953Z,41.80
2018-07-02T07:41:01.164Z,42.50
2018-07-02T07:43:30.332Z,41.40
2018-07-02T07:45:59.460Z,39.20
2018-07-02T07:48:28.688Z,42.20
2018-07-02T07:50:58.325Z,39.10
2018-07-02T07:55:56.346Z,41.40
2018-07-02T07:58:25.658Z,39.00
2018-07-02T08:00:55.044Z,40.60
2018-07-02T08:03:24.507Z,37.30
2018-07-02T08:05:54.026Z,38.20
2018-07-02T08:08:23.516Z,38.40
2018-07-02T08:10:53.200Z,38.20
2018-07-02T08:13:22.589Z,37.70
2018-07-02T08:15:51.950Z,38.70
2018-07-02T08:18:21.364Z,39.10
2018-07-02T08:20:50.802Z,37.30
2018-07-02T08:23:20.164Z,37.30
2018-07-02T08:25:49.813Z,35.30
2018-07-02T08:28:19.255Z,35.80
2018-07-02T08:30:48.708Z,37.10
2018-07-02T08:33:17.953Z,35.90
2018-07-02T08:35:47.160Z,36.60
2018-07-02T08:38:16.361Z,37.00
2018-07-02T08:40:45.680Z,39.20
2018-07-02T08:43:15.192Z,38.10
2018-07-02T08:45:44.352Z,37.80
2018-07-02T08:48:13.817Z,37.00
2018-07-02T08:50:43.228Z,36.00
2018-07-02T08:53:12.656Z,37.00
2018-07-02T08:55:42.548Z,37.90
2018-07-02T08:58:12.101Z,37.30
2018-07-02T09:00:41.258Z,36.40
2018-07-02T09:03:11.704Z,36.30
2018-07-02T09:05:41.052Z,36.40
2018-07-02T09:08:10.477Z,34.50
2018-07-02T09:10:39.648Z,34.30
2018-07-02T09:13:09.070Z,33.80
2018-07-02T09:15:38.424Z,35.40
2018-07-02T09:18:07.620Z,36.30
2018-07-02T09:20:36.914Z,35.70
2018-07-02T09:23:06.139Z,35.90
2018-07-02T09:25:35.296Z,35.80
2018-07-02T09:30:33.104Z,35.40
2018-07-02T09:33:02.148Z,35.60
2018-07-02T09:35:31.477Z,35.80
2018-07-02T09:38:00.801Z,35.80
2018-07-02T09:40:30.062Z,34.80
2018-07-02T09:42:59.425Z,33.20
2018-07-02T09:45:28.576Z,35.30
2018-07-02T09:47:57.837Z,36.00
2018-07-02T09:50:27.114Z,34.50
2018-07-02T09:52:56.690Z,33.70
2018-07-02T09:55:26.228Z,33.00
2018-07-02T09:57:55.512Z,32.70
2018-07-02T10:00:24.785Z,33.60
2018-07-02T10:02:54.035Z,33.70
2018-07-02T10:05:23.657Z,35.10
2018-07-02T10:07:53.260Z,34.00
2018-07-02T10:10:22.614Z,35.60
2018-07-02T10:15:21.941Z,35.20
2018-07-02T10:17:51.392Z,33.70
2018-07-02T10:20:20.892Z,33.70
2018-07-02T10:22:50.478Z,35.00
2018-07-02T10:25:19.935Z,34.30
2018-07-02T10:27:49.405Z,33.70
2018-07-02T10:30:18.642Z,35.80
2018-07-02T10:32:47.873Z,35.40
2018-07-02T10:35:17.116Z,35.30
2018-07-02T10:37:46.396Z,32.60
2018-07-02T10:40:15.749Z,33.00
2018-07-02T10:42:45.029Z,33.10
2018-07-02T10:45:15.960Z,33.70
2018-07-02T10:47:45.303Z,33.10
2018-07-02T10:50:14.675Z,34.20
2018-07-02T10:52:44.008Z,34.10
2018-07-02T10:55:13.431Z,33.30
2018-07-02T10:57:42.857Z,34.00
2018-07-02T11:00:12.206Z,34.10
2018-07-02T11:02:41.547Z,34.30
2018-07-02T11:05:10.859Z,33.50
2018-07-02T11:07:40.369Z,32.80
2018-07-02T11:10:09.733Z,34.40
2018-07-02T11:12:39.177Z,33.80
2018-07-02T11:15:08.417Z,32.80
2018-07-02T11:17:37.476Z,34.00
2018-07-02T11:20:06.862Z,34.50
2018-07-02T11:22:36.104Z,33.30
2018-07-02T11:25:05.485Z,34.20
2018-07-02T11:27:34.529Z,34.20
2018-07-02T11:30:03.905Z,36.20
2018-07-02T11:32:32.949Z,37.50
2018-07-02T11:35:02.143Z,38.40
2018-07-02T11:37:31.301Z,36.80
2018-07-02T11:40:00.541Z,38.40
2018-07-02T11:42:29.580Z,37.80
2018-07-02T11:44:58.660Z,38.20
2018-07-02T11:47:27.781Z,38.40
2018-07-02T11:49:56.968Z,38.60
2018-07-02T11:52:26.753Z,36.90
2018-07-02T11:54:56.120Z,37.80
2018-07-02T11:57:25.723Z,36.90
2018-07-02T11:59:55.097Z,36.90
2018-07-02T12:02:24.340Z,36.10
2018-07-02T12:04:53.413Z,36.40
2018-07-02T12:07:22.877Z,36.20
2018-07-02T12:09:52.199Z,36.30
2018-07-02T12:12:21.480Z,36.20
2018-07-02T12:14:50.976Z,35.60
2018-07-02T12:17:20.605Z,35.60
2018-07-02T12:19:49.993Z,34.30
2018-07-02T12:22:19.313Z,34.00
2018-07-02T12:24:48.522Z,35.00
2018-07-02T12:27:17.828Z,35.40
2018-07-02T12:29:47.248Z,35.80
2018-07-02T12:32:16.629Z,35.50
2018-07-02T12:34:45.980Z,35.60
2018-07-02T12:37:15.182Z,35.20
2018-07-02T12:39:44.395Z,35.40
2018-07-02T12:42:13.668Z,34.40
2018-07-02T12:44:43.112Z,35.30
2018-07-02T12:47:12.288Z,35.40
2018-07-02T12:49:41.961Z,35.70
2018-07-02T12:52:11.266Z,35.70
2018-07-02T12:54:40.574Z,36.50
2018-07-02T12:57:10.317Z,35.10
2018-07-02T12:59:39.550Z,35.70
2018-07-02T13:02:08.720Z,35.50
2018-07-02T13:04:37.825Z,34.60
2018-07-02T13:07:07.347Z,34.00
2018-07-02T13:09:36.652Z,34.10
2018-07-02T13:12:05.824Z,34.50
2018-07-02T13:14:35.091Z,34.60
2018-07-02T13:17:04.240Z,35.30
2018-07-02T13:19:33.601Z,35.10
2018-07-02T13:22:02.756Z,35.00
2018-07-02T13:24:31.977Z,35.50
2018-07-02T13:27:01.325Z,34.20
2018-07-02T13:29:30.659Z,34.30
2018-07-02T13:31:59.944Z,34.50
2018-07-02T13:34:29.369Z,34.50
2018-07-02T13:36:58.335Z,34.00
2018-07-02T13:39:27.337Z,35.20
2018-07-02T13:41:56.417Z,34.60
2018-07-02T13:44:25.540Z,34.50
2018-07-02T13:46:54.793Z,35.50
2018-07-02T13:49:24.194Z,35.30
2018-07-02T13:51:53.541Z,34.70
2018-07-02T13:54:22.828Z,34.90
2018-07-02T13:56:52.237Z,33.70
2018-07-02T13:59:21.769Z,34.50
2018-07-02T14:01:51.297Z,33.90
2018-07-02T14:04:20.928Z,33.10
2018-07-02T14:06:51.305Z,33.30
2018-07-02T14:09:21.848Z,35.20
2018-07-02T14:11:51.624Z,34.60
2018-07-02T14:14:21.694Z,34.90
2018-07-02T14:16:51.208Z,34.30
2018-07-02T14:19:20.729Z,33.40
2018-07-02T14:21:50.141Z,33.50
2018-07-02T14:24:19.436Z,33.50
2018-07-02T14:26:49.164Z,34.50
2018-07-02T14:29:18.519Z,35.60
2018-07-02T14:31:47.875Z,34.40
2018-07-02T14:34:17.280Z,34.10
2018-07-02T14:36:46.472Z,34.50
2018-07-02T14:39:15.671Z,34.30
2018-07-02T14:41:44.981Z,34.70
2018-07-02T14:44:14.196Z,33.50
2018-07-02T14:46:43.594Z,33.40
2018-07-02T14:49:12.953Z,33.50
2018-07-02T14:51:42.184Z,34.40
2018-07-02T14:54:11.787Z,33.40
2018-07-02T14:56:41.178Z,34.10
2018-07-02T14:59:10.516Z,33.30
2018-07-02T15:01:39.885Z,33.40
2018-07-02T15:04:09.178Z,32.70
2018-07-02T15:06:38.292Z,33.20
2018-07-02T15:09:11.027Z,33.00
2018-07-02T15:11:40.394Z,32.50
2018-07-02T15:14:09.956Z,32.60
2018-07-02T15:16:39.344Z,33.20
2018-07-02T15:19:09.175Z,33.90
2018-07-02T15:21:38.748Z,33.80
2018-07-02T15:24:08.092Z,33.70
2018-07-02T15:26:37.410Z,34.80
2018-07-02T15:29:06.791Z,32.60
2018-07-02T15:31:35.816Z,32.80
2018-07-02T15:34:05.069Z,32.10
2018-07-02T15:36:34.284Z,33.10
2018-07-02T15:39:03.798Z,31.70
2018-07-02T15:41:32.978Z,32.00
2018-07-02T15:44:02.285Z,33.00
2018-07-02T15:46:31.591Z,33.10
2018-07-02T15:49:00.944Z,32.10
2018-07-02T15:51:30.029Z,32.50
2018-07-02T15:53:59.119Z,32.90
2018-07-02T15:56:28.368Z,32.30
2018-07-02T15:58:57.546Z,32.80
2018-07-02T16:01:26.855Z,33.10
2018-07-02T16:06:24.960Z,33.00
2018-07-02T16:08:54.608Z,32.30
2018-07-02T16:11:23.847Z,31.80
2018-07-02T16:13:53.012Z,32.30
2018-07-02T16:16:22.256Z,32.20
2018-07-02T16:18:51.631Z,32.10
2018-07-02T16:21:20.976Z,31.80
2018-07-02T16:23:50.144Z,32.60
2018-07-02T16:26:19.508Z,32.40
2018-07-02T16:28:49.032Z,32.40
2018-07-02T16:31:18.472Z,32.20
2018-07-02T16:33:47.828Z,32.10
2018-07-02T16:36:17.300Z,32.10
2018-07-02T16:38:46.742Z,32.00
2018-07-02T16:41:16.105Z,32.50
2018-07-02T16:43:45.373Z,31.80
2018-07-02T16:46:15.047Z,31.80
2018-07-02T16:48:44.208Z,32.10
2018-07-02T16:51:13.671Z,32.70
2018-07-02T16:53:42.828Z,33.10
2018-07-02T16:56:12.164Z,32.10
2018-07-02T16:58:41.280Z,32.70
2018-07-02T17:01:10.660Z,32.50
2018-07-02T17:03:39.908Z,32.80
2018-07-02T17:06:09.250Z,32.70
2018-07-02T17:08:38.942Z,32.90
2018-07-02T17:11:08.408Z,33.10
2018-07-02T17:13:38.007Z,34.00
2018-07-02T17:18:36.207Z,34.20
2018-07-02T17:21:05.822Z,34.90
2018-07-02T17:23:35.326Z,34.80
2018-07-02T17:26:04.795Z,35.20
2018-07-02T17:28:34.353Z,35.70
2018-07-02T17:31:03.639Z,36.20
2018-07-02T17:33:32.974Z,36.40
2018-07-02T17:36:02.168Z,36.10
2018-07-02T17:38:31.521Z,36.30
2018-07-02T17:41:00.900Z,37.10
2018-07-02T17:43:30.152Z,36.40
2018-07-02T17:45:59.525Z,36.10
2018-07-02T17:48:28.976Z,36.50
2018-07-02T17:50:58.136Z,37.20
2018-07-02T17:53:27.514Z,37.10
2018-07-02T17:55:56.660Z,37.10
2018-07-02T17:58:26.132Z,36.40
2018-07-02T18:00:55.279Z,37.10
2018-07-02T18:03:24.436Z,36.30
2018-07-02T18:05:53.825Z,37.20
2018-07-02T18:08:23.260Z,37.10
2018-07-02T18:10:52.446Z,37.20
2018-07-02T18:13:21.689Z,37.30
2018-07-02T18:15:50.974Z,37.20
2018-07-02T18:18:20.439Z,38.30
2018-07-02T18:20:49.829Z,38.10
2018-07-02T18:23:19.053Z,38.20
2018-07-02T18:25:48.321Z,38.90
2018-07-02T18:28:17.654Z,38.90
2018-07-02T18:30:46.980Z,39.40
2018-07-02T18:33:16.356Z,39.10
2018-07-02T18:35:45.600Z,39.60
2018-07-02T18:38:14.869Z,40.40
2018-07-02T18:40:44.424Z,40.10
2018-07-02T18:43:13.760Z,40.30
2018-07-02T18:45:43.215Z,40.70
2018-07-02T18:48:12.741Z,41.10
2018-07-02T18:50:52.821Z,41.70
2018-07-02T18:53:22.111Z,40.70
2018-07-02T18:55:51.264Z,39.70
2018-07-02T18:58:20.545Z,40.30
2018-07-02T19:00:49.928Z,41.10
2018-07-02T19:03:19.078Z,41.30
2018-07-02T19:05:48.624Z,40.70
2018-07-02T19:08:17.899Z,41.20
2018-07-02T19:10:47.153Z,40.90
2018-07-02T19:13:16.602Z,41.60
2018-07-02T19:15:46.099Z,41.40
2018-07-02T19:18:15.353Z,41.80
2018-07-02T19:20:44.928Z,41.90
2018-07-02T19:23:14.224Z,40.80
2018-07-02T19:25:43.538Z,41.80
2018-07-02T19:28:12.612Z,41.50
2018-07-02T19:30:42.370Z,41.90
2018-07-02T19:33:11.745Z,42.30
2018-07-02T19:35:41.167Z,42.10
2018-07-02T19:38:10.606Z,41.90
2018-07-02T19:40:40.112Z,41.40
2018-07-02T19:43:09.576Z,41.70
2018-07-02T19:45:39.185Z,41.70
2018-07-02T19:48:08.853Z,42.90
2018-07-02T19:50:38.283Z,43.60
2018-07-02T19:53:08.512Z,42.80
2018-07-02T19:55:37.869Z,45.20
2018-07-02T19:58:07.976Z,43.80
2018-07-02T20:00:37.379Z,44.80
2018-07-02T20:03:06.957Z,42.60
2018-07-02T20:05:36.624Z,42.70
2018-07-02T20:08:06.205Z,42.90
2018-07-02T20:10:35.746Z,41.40
2018-07-02T20:13:05.519Z,42.60
2018-07-02T20:15:34.709Z,42.60
2018-07-02T20:18:04.242Z,42.10
2018-07-02T20:20:33.226Z,41.90
2018-07-02T20:23:02.417Z,41.90
2018-07-02T20:25:31.592Z,41.80
2018-07-02T20:28:00.739Z,41.10
2018-07-02T20:30:30.113Z,41.20
2018-07-02T20:32:59.549Z,42.60
2018-07-02T20:35:28.984Z,41.60
2018-07-02T20:37:58.190Z,40.80
2018-07-02T20:40:27.248Z,40.40
2018-07-02T20:42:56.408Z,40.70
2018-07-02T20:45:25.479Z,41.40
2018-07-02T20:47:54.928Z,40.60
2018-07-02T20:50:24.216Z,40.80
2018-07-02T20:52:53.872Z,40.50
2018-07-02T20:55:23.132Z,40.00
2018-07-02T20:57:52.399Z,40.20
2018-07-02T21:00:21.701Z,41.80
2018-07-02T21:02:50.916Z,42.10
2018-07-02T21:05:20.076Z,41.20
2018-07-02T21:07:49.492Z,42.70
2018-07-02T21:10:19.114Z,42.70
2018-07-02T21:12:48.435Z,42.30
2018-07-02T21:15:17.571Z,41.20
2018-07-02T21:17:46.736Z,43.60
2018-07-02T21:20:16.264Z,43.70
2018-07-02T21:22:45.645Z,41.10
2018-07-02T21:25:14.916Z,44.30
2018-07-02T21:27:44.694Z,42.80
2018-07-02T21:32:42.988Z,43.70
2018-07-02T21:35:12.487Z,45.40
2018-07-02T21:37:41.683Z,43.30
2018-07-02T21:40:11.244Z,45.10
2018-07-02T21:42:40.609Z,43.60
2018-07-02T21:45:10.023Z,46.30
2018-07-02T21:47:39.472Z,42.10
2018-07-02T21:50:08.840Z,44.60
2018-07-02T21:52:38.196Z,44.20
2018-07-02T21:55:07.448Z,46.50
2018-07-02T21:57:36.947Z,44.60
2018-07-02T22:00:09.791Z,42.90
2018-07-02T22:02:39.091Z,43.80
2018-07-02T22:05:08.735Z,44.80
2018-07-02T22:07:38.677Z,42.60
2018-07-02T22:10:08.294Z,44.80
2018-07-02T22:12:38.409Z,44.60
2018-07-02T22:15:07.876Z,45.00
2018-07-02T22:17:37.413Z,44.90
2018-07-02T22:20:07.900Z,43.80
2018-07-02T22:22:37.192Z,46.20
2018-07-02T22:25:06.669Z,44.80
2018-07-02T22:27:36.053Z,45.70
2018-07-02T22:30:05.170Z,42.10
2018-07-02T22:32:34.768Z,47.60
2018-07-02T22:35:03.892Z,44.90
2018-07-02T22:37:33.148Z,45.90
2018-07-02T22:40:02.517Z,43.10
2018-07-02T22:42:31.776Z,43.90
2018-07-02T22:45:01.061Z,43.40
2018-07-02T22:47:30.399Z,47.80
2018-07-02T22:49:59.884Z,47.30
2018-07-02T22:52:29.332Z,43.90
2018-07-02T22:54:58.604Z,45.70
2018-07-02T22:57:27.962Z,44.50
2018-07-02T22:59:57.228Z,44.80
2018-07-02T23:02:26.476Z,47.00
2018-07-02T23:04:56.104Z,45.50
2018-07-02T23:07:25.348Z,46.70
2018-07-02T23:09:54.644Z,49.20
2018-07-02T23:12:23.828Z,47.70
2018-07-02T23:14:53.121Z,47.00
2018-07-02T23:17:22.972Z,44.30
2018-07-02T23:19:52.441Z,47.80
2018-07-02T23:22:21.677Z,46.40
2018-07-02T23:24:51.353Z,47.50
2018-07-02T23:27:21.520Z,45.40
2018-07-02T23:29:51.080Z,47.50
2018-07-02T23:32:20.425Z,48.00
2018-07-02T23:34:49.988Z,45.90
2018-07-02T23:37:19.564Z,46.90
2018-07-02T23:42:18.437Z,47.00
2018-07-02T23:44:48.356Z,46.80
2018-07-02T23:47:17.906Z,47.20
2018-07-02T23:49:47.737Z,50.10
2018-07-02T23:52:17.356Z,50.20
2018-07-02T23:54:47.107Z,48.90
2018-07-02T23:57:16.604Z,46.60
2018-07-02T23:59:46.096Z,47.30
